Time;durP1;ratioP1;P1;durP2;ratioP2;P2;SDS_P1;SDS_P2;PMS_P1;PMS_P2;Temp;Humidity;BMP_temperature;BMP_pressure;BME280_temperature;BME280_humidity;BME280_pressure;Samples;Min_cycle;Max_cycle;Signal;HPM_P1;HPM_P2
2023/05/10 00:00:12;;;;;;;80.50;58.15;;;;;;;;;;5033624;28;20014;-73
2023/05/10 00:02:39;;;;;;;90.57;69.53;;;;;;;;;;5033441;28;20075;-72
2023/05/10 00:05:06;;;;;;;94.40;64.15;;;;;;;;;;5033544;28;20048;-71
2023/05/10 00:07:35;;;;;;;76.50;54.97;;;;;;;;;;5033491;28;20045;-74
2023/05/10 00:10:02;;;;;;;73.93;49.47;;;;;;;;;;5033284;28;20025;-73
2023/05/10 00:12:28;;;;;;;56.80;40.17;;;;;;;;;;5033542;28;20046;-72
2023/05/10 00:14:55;;;;;;;81.43;56.20;;;;;;;;;;5033492;28;20067;-72
2023/05/10 00:17:21;;;;;;;114.53;82.35;;;;;;;;;;5033199;28;20049;-72
2023/05/10 00:19:48;;;;;;;53.15;36.63;;;;;;;;;;5033587;28;20497;-76
2023/05/10 00:22:15;;;;;;;47.10;31.88;;;;;;;;;;5033424;28;20071;-75
2023/05/10 00:24:41;;;;;;;38.90;27.70;;;;;;;;;;5033225;28;20017;-76
2023/05/10 00:27:08;;;;;;;44.28;28.25;;;;;;;;;;5033281;28;20033;-78
2023/05/10 00:29:35;;;;;;;49.97;30.48;;;;;;;;;;5033306;28;20052;-78
2023/05/10 00:32:02;;;;;;;39.63;29.77;;;;;;;;;;5033199;28;20378;-74
2023/05/10 00:34:28;;;;;;;36.05;26.63;;;;;;;;;;5033271;28;20021;-72
2023/05/10 00:36:56;;;;;;;45.55;26.08;;;;;;;;;;5033247;28;20018;-68
2023/05/10 00:39:22;;;;;;;39.50;27.23;;;;;;;;;;5033087;28;20026;-67
2023/05/10 00:41:49;;;;;;;42.90;27.10;;;;;;;;;;5033485;28;20026;-69
2023/05/10 00:44:15;;;;;;;39.17;27.88;;;;;;;;;;5033202;28;20021;-66
2023/05/10 00:46:42;;;;;;;44.08;29.92;;;;;;;;;;5032958;28;20456;-65
2023/05/10 00:49:09;;;;;;;41.13;33.15;;;;;;;;;;5033193;28;20437;-66
2023/05/10 00:51:36;;;;;;;53.55;39.03;;;;;;;;;;5032961;28;20076;-65
2023/05/10 00:54:05;;;;;;;42.10;31.38;;;;;;;;;;5031602;28;20100;-66
2023/05/10 00:56:31;;;;;;;43.00;29.88;;;;;;;;;;5045208;28;20131;-65
2023/05/10 00:58:58;;;;;;;43.05;31.25;;;;;;;;;;5069499;28;20147;-66
2023/05/10 01:01:25;;;;;;;113.88;82.10;;;;;;;;;;5059824;28;20025;-65
2023/05/10 01:03:52;;;;;;;70.47;53.45;;;;;;;;;;5052095;28;20381;-66
2023/05/10 01:06:18;;;;;;;67.03;48.83;;;;;;;;;;5060690;28;20072;-68
2023/05/10 01:08:45;;;;;;;54.10;40.03;;;;;;;;;;5062450;28;20021;-71
2023/05/10 01:11:12;;;;;;;43.67;33.30;;;;;;;;;;5067853;28;20029;-67
2023/05/10 01:13:39;;;;;;;40.35;29.30;;;;;;;;;;5073423;28;20157;-70
2023/05/10 01:16:06;;;;;;;220.77;151.73;;;;;;;;;;5076424;28;20024;-70
2023/05/10 01:18:36;;;;;;;71.82;48.42;;;;;;;;;;5076510;28;20485;-70
2023/05/10 01:21:22;;;;;;;190.52;48.47;;;;;;;;;;5076400;28;20028;-72
2023/05/10 01:23:49;;;;;;;226.43;121.72;;;;;;;;;;5075939;28;20040;-72
2023/05/10 01:26:29;;;;;;;167.73;110.20;;;;;;;;;;5076537;28;20358;-69
2023/05/10 01:28:58;;;;;;;50.17;34.25;;;;;;;;;;5076021;28;20449;-68
2023/05/10 01:31:25;;;;;;;41.28;23.80;;;;;;;;;;5076227;28;20036;-67
2023/05/10 01:33:51;;;;;;;91.50;64.10;;;;;;;;;;5076597;28;20048;-68
2023/05/10 01:36:26;;;;;;;56.70;37.78;;;;;;;;;;5076174;28;20058;-66
2023/05/10 01:38:54;;;;;;;77.38;45.33;;;;;;;;;;5076383;28;20032;-66
2023/05/10 01:41:29;;;;;;;67.70;36.70;;;;;;;;;;5076443;28;20042;-67
2023/05/10 01:43:55;;;;;;;102.82;58.72;;;;;;;;;;5076321;28;20035;-67
2023/05/10 01:46:27;;;;;;;380.95;185.63;;;;;;;;;;5076117;28;20079;-67
2023/05/10 01:48:55;;;;;;;467.77;237.75;;;;;;;;;;5072223;28;20116;-66
2023/05/10 01:51:25;;;;;;;265.40;126.30;;;;;;;;;;5055160;28;20108;-67
2023/05/10 01:53:59;;;;;;;183.20;88.95;;;;;;;;;;5039289;28;20026;-67
2023/05/10 01:56:27;;;;;;;76.68;43.03;;;;;;;;;;5039567;28;20111;-67
2023/05/10 01:58:54;;;;;;;48.53;31.40;;;;;;;;;;5055607;28;20053;-66
2023/05/10 02:01:22;;;;;;;170.90;66.55;;;;;;;;;;5055486;28;20104;-65
2023/05/10 02:03:50;;;;;;;62.58;40.35;;;;;;;;;;5055429;28;20056;-68
2023/05/10 02:06:19;;;;;;;62.05;35.97;;;;;;;;;;5049338;28;20025;-66
2023/05/10 02:08:46;;;;;;;155.32;67.95;;;;;;;;;;5035399;28;20047;-67
2023/05/10 02:11:14;;;;;;;106.88;49.42;;;;;;;;;;5035463;28;20429;-66
2023/05/10 02:13:42;;;;;;;151.15;84.38;;;;;;;;;;5060166;28;20141;-67
2023/05/10 02:16:09;;;;;;;255.63;129.90;;;;;;;;;;5063371;28;20025;-65
2023/05/10 02:18:36;;;;;;;137.57;73.22;;;;;;;;;;5060718;28;20078;-67
2023/05/10 02:21:03;;;;;;;87.78;53.97;;;;;;;;;;5064427;28;20028;-67
2023/05/10 02:23:31;;;;;;;80.68;45.40;;;;;;;;;;5039055;28;20029;-66
2023/05/10 02:25:58;;;;;;;127.07;72.00;;;;;;;;;;5053419;28;20051;-65
2023/05/10 02:28:26;;;;;;;134.88;80.63;;;;;;;;;;5055641;28;20106;-66
2023/05/10 02:50:38;;;;;;;91.47;63.00;;;;;;;;;;5065923;28;20794;-72
2023/05/10 02:53:10;;;;;;;84.55;61.08;;;;;;;;;;5057151;28;20022;-72
2023/05/10 02:55:38;;;;;;;55.35;41.55;;;;;;;;;;5043700;27;20060;-71
2023/05/10 02:58:05;;;;;;;61.45;39.42;;;;;;;;;;5036171;27;20053;-72
2023/05/10 03:00:32;;;;;;;81.32;54.60;;;;;;;;;;5045877;28;20097;-72
2023/05/10 03:02:59;;;;;;;72.00;47.88;;;;;;;;;;5043693;28;20364;-70
2023/05/10 03:05:25;;;;;;;79.75;53.83;;;;;;;;;;5044568;27;20446;-70
2023/05/10 03:07:52;;;;;;;82.28;55.10;;;;;;;;;;5049660;28;20450;-72
2023/05/10 03:10:19;;;;;;;129.07;84.13;;;;;;;;;;5051271;27;20024;-69
2023/05/10 03:12:50;;;;;;;121.65;85.32;;;;;;;;;;5043294;28;20032;-69
2023/05/10 03:15:32;;;;;;;131.93;88.60;;;;;;;;;;5041756;28;20034;-72
2023/05/10 03:18:08;;;;;;;176.70;105.63;;;;;;;;;;5051066;27;20022;-71
2023/05/10 03:20:39;;;;;;;163.95;110.05;;;;;;;;;;5046140;27;20108;-71
2023/05/10 03:23:26;;;;;;;153.07;100.53;;;;;;;;;;5037222;27;20498;-71
2023/05/10 03:25:53;;;;;;;103.22;71.22;;;;;;;;;;5039371;28;20062;-72
2023/05/10 03:28:21;;;;;;;107.00;71.40;;;;;;;;;;5045617;28;20108;-70
2023/05/10 03:30:48;;;;;;;93.28;62.72;;;;;;;;;;5044284;27;20546;-72
2023/05/10 03:33:15;;;;;;;118.32;83.32;;;;;;;;;;5046170;28;20588;-69
2023/05/10 03:35:41;;;;;;;102.60;68.25;;;;;;;;;;5051278;28;20532;-70
2023/05/10 03:38:08;;;;;;;101.93;73.22;;;;;;;;;;5051806;27;20037;-74
2023/05/10 03:40:35;;;;;;;101.68;67.32;;;;;;;;;;5047068;28;20022;-71
2023/05/10 03:43:02;;;;;;;106.50;68.65;;;;;;;;;;5046463;28;20070;-71
2023/05/10 03:45:28;;;;;;;123.47;84.63;;;;;;;;;;5041434;28;20103;-68
2023/05/10 03:47:56;;;;;;;117.35;83.25;;;;;;;;;;5037168;28;20022;-69
2023/05/10 03:50:22;;;;;;;94.65;66.95;;;;;;;;;;5023826;28;20063;-68
2023/05/10 03:52:49;;;;;;;74.28;55.60;;;;;;;;;;5018360;28;20026;-71
2023/05/10 03:55:16;;;;;;;99.53;70.88;;;;;;;;;;5029958;27;20041;-70
2023/05/10 03:57:43;;;;;;;120.80;84.22;;;;;;;;;;5023419;28;20037;-71
2023/05/10 04:00:10;;;;;;;112.93;69.30;;;;;;;;;;5020327;28;20074;-72
2023/05/10 04:02:37;;;;;;;74.30;50.45;;;;;;;;;;5027155;28;20086;-68
2023/05/10 04:05:03;;;;;;;78.40;58.15;;;;;;;;;;5024836;28;20195;-71
2023/05/10 04:07:30;;;;;;;74.53;54.53;;;;;;;;;;5025991;28;20026;-71
2023/05/10 04:09:57;;;;;;;67.38;47.65;;;;;;;;;;5045556;27;20493;-68
2023/05/10 04:12:23;;;;;;;59.05;41.78;;;;;;;;;;5028009;28;20116;-71
2023/05/10 04:14:50;;;;;;;56.05;39.95;;;;;;;;;;5029939;28;20036;-71
2023/05/10 04:17:17;;;;;;;57.92;42.00;;;;;;;;;;5027134;28;20018;-69
2023/05/10 04:19:44;;;;;;;94.13;66.10;;;;;;;;;;5022802;28;20078;-68
2023/05/10 04:22:10;;;;;;;107.97;70.95;;;;;;;;;;5027173;28;20029;-71
2023/05/10 04:24:37;;;;;;;106.20;64.32;;;;;;;;;;5029965;28;20049;-70
2023/05/10 04:27:04;;;;;;;116.55;87.85;;;;;;;;;;5030728;28;20022;-71
2023/05/10 04:29:30;;;;;;;182.55;141.05;;;;;;;;;;5030582;28;20029;-69
2023/05/10 04:31:57;;;;;;;109.00;80.80;;;;;;;;;;5015708;28;20030;-71
2023/05/10 04:34:24;;;;;;;108.72;78.35;;;;;;;;;;5030491;28;20150;-69
2023/05/10 04:36:50;;;;;;;176.23;129.85;;;;;;;;;;5032404;28;20029;-71
2023/05/10 04:39:17;;;;;;;201.15;142.40;;;;;;;;;;5031388;28;20037;-70
2023/05/10 04:41:50;;;;;;;206.88;151.65;;;;;;;;;;5031260;28;20306;-68
2023/05/10 04:44:17;;;;;;;190.77;144.00;;;;;;;;;;5029007;28;20116;-69
2023/05/10 04:46:43;;;;;;;87.70;63.63;;;;;;;;;;5024301;28;20452;-69
2023/05/10 04:49:10;;;;;;;75.65;54.35;;;;;;;;;;5022398;28;20089;-71
2023/05/10 04:51:36;;;;;;;59.63;43.38;;;;;;;;;;5026605;28;20032;-70
2023/05/10 04:54:03;;;;;;;57.83;40.10;;;;;;;;;;5024964;28;20044;-69
2023/05/10 04:56:30;;;;;;;58.38;40.72;;;;;;;;;;5017811;28;20026;-69
2023/05/10 04:58:56;;;;;;;57.40;36.53;;;;;;;;;;5025110;28;20423;-67
2023/05/10 05:01:23;;;;;;;50.58;34.60;;;;;;;;;;5034497;27;20598;-69
2023/05/10 05:03:52;;;;;;;46.35;35.03;;;;;;;;;;5024526;28;20175;-73
2023/05/10 05:06:20;;;;;;;29.88;24.00;;;;;;;;;;5036283;28;20383;-69
2023/05/10 05:08:49;;;;;;;39.67;22.67;;;;;;;;;;5028827;28;20462;-70
2023/05/10 05:11:15;;;;;;;116.15;92.97;;;;;;;;;;5030695;28;20045;-69
2023/05/10 05:13:42;;;;;;;78.47;65.40;;;;;;;;;;5023921;28;20271;-70
2023/05/10 05:16:08;;;;;;;59.88;46.20;;;;;;;;;;5023444;28;20034;-71
2023/05/10 05:18:35;;;;;;;97.57;76.78;;;;;;;;;;5028516;28;20117;-69
2023/05/10 05:21:02;;;;;;;75.93;61.63;;;;;;;;;;5025945;28;20026;-71
2023/05/10 05:23:28;;;;;;;99.18;73.43;;;;;;;;;;5032607;28;20028;-69
2023/05/10 05:25:55;;;;;;;86.70;63.50;;;;;;;;;;5028160;28;20023;-69
2023/05/10 05:28:21;;;;;;;82.60;60.65;;;;;;;;;;5025825;28;20463;-68
2023/05/10 05:30:48;;;;;;;50.55;36.30;;;;;;;;;;5027767;28;20033;-65
2023/05/10 05:33:15;;;;;;;53.38;37.00;;;;;;;;;;5027209;28;20052;-67
2023/05/10 05:35:47;;;;;;;55.72;40.72;;;;;;;;;;5026631;28;20021;-73
2023/05/10 05:38:13;;;;;;;;;;;;;;;;;;5025175;28;20308;-67
2023/05/10 05:40:40;;;;;;;48.75;34.88;;;;;;;;;;5021527;28;20386;-73
2023/05/10 05:43:06;;;;;;;71.75;54.20;;;;;;;;;;5025754;28;20022;-71
2023/05/10 05:45:33;;;;;;;65.45;49.00;;;;;;;;;;5023861;28;20109;-69
2023/05/10 05:48:00;;;;;;;23.70;17.35;;;;;;;;;;5020466;28;20037;-67
2023/05/10 05:50:26;;;;;;;51.33;35.83;;;;;;;;;;5021631;28;20049;-70
2023/05/10 05:52:53;;;;;;;40.30;30.45;;;;;;;;;;5024493;28;20019;-73
2023/05/10 05:55:19;;;;;;;49.47;38.85;;;;;;;;;;5021898;28;20029;-70
2023/05/10 05:57:46;;;;;;;73.82;54.85;;;;;;;;;;5022688;28;20104;-70
2023/05/10 06:00:13;;;;;;;38.65;32.35;;;;;;;;;;5026093;28;20685;-70
2023/05/10 06:02:40;;;;;;;37.67;29.75;;;;;;;;;;5025238;28;20022;-67
2023/05/10 06:05:07;;;;;;;29.75;25.02;;;;;;;;;;5028494;28;20094;-67
2023/05/10 06:07:34;;;;;;;52.55;42.38;;;;;;;;;;5023541;28;20034;-67
2023/05/10 06:10:00;;;;;;;58.60;36.58;;;;;;;;;;5022403;28;20029;-68
2023/05/10 06:12:27;;;;;;;212.18;108.68;;;;;;;;;;5026403;28;20479;-68
2023/05/10 06:14:54;;;;;;;57.10;35.22;;;;;;;;;;5029402;28;20037;-68
2023/05/10 06:17:21;;;;;;;41.30;25.92;;;;;;;;;;5025242;28;20028;-70
2023/05/10 06:19:48;;;;;;;54.08;32.33;;;;;;;;;;5026845;28;20022;-67
2023/05/10 06:22:14;;;;;;;51.53;39.17;;;;;;;;;;5019986;28;20024;-69
2023/05/10 06:24:41;;;;;;;37.83;25.50;;;;;;;;;;5025367;28;20021;-71
2023/05/10 06:28:18;;;;;;;35.13;27.23;;;;;;;;;;5069934;28;20423;-68
2023/05/10 06:30:45;;;;;;;31.70;23.00;;;;;;;;;;5054573;28;20025;-68
2023/05/10 06:33:11;;;;;;;25.85;17.02;;;;;;;;;;5049170;28;20079;-68
2023/05/10 06:35:38;;;;;;;19.02;15.05;;;;;;;;;;5055006;28;20501;-68
2023/05/10 06:38:05;;;;;;;17.77;14.85;;;;;;;;;;5050177;28;20041;-69
2023/05/10 06:40:32;;;;;;;47.88;38.35;;;;;;;;;;5049484;28;20036;-68
2023/05/10 06:42:59;;;;;;;62.80;41.45;;;;;;;;;;5049568;28;20033;-69
2023/05/10 06:45:26;;;;;;;42.85;37.10;;;;;;;;;;5046318;28;20053;-67
2023/05/10 06:47:52;;;;;;;74.22;58.20;;;;;;;;;;5049236;28;20061;-66
2023/05/10 06:50:19;;;;;;;95.75;83.95;;;;;;;;;;5040593;28;20516;-69
2023/05/10 06:52:45;;;;;;;55.40;49.47;;;;;;;;;;5042601;28;20107;-69
2023/05/10 06:55:12;;;;;;;58.40;48.22;;;;;;;;;;5046247;28;20293;-69
2023/05/10 06:57:39;;;;;;;40.45;33.75;;;;;;;;;;5040550;28;20033;-69
2023/05/10 07:00:06;;;;;;;119.63;84.63;;;;;;;;;;5046573;28;20031;-72
2023/05/10 07:02:32;;;;;;;47.15;40.17;;;;;;;;;;5046975;28;20067;-69
2023/05/10 07:04:59;;;;;;;35.95;28.10;;;;;;;;;;5037915;28;20116;-70
2023/05/10 07:07:26;;;;;;;35.28;27.73;;;;;;;;;;5047614;28;20481;-69
2023/05/10 07:09:52;;;;;;;28.73;21.33;;;;;;;;;;5061977;28;20044;-69
2023/05/10 07:12:19;;;;;;;103.22;55.28;;;;;;;;;;5044869;28;20295;-70
2023/05/10 07:14:46;;;;;;;177.57;102.35;;;;;;;;;;5050718;28;20152;-74
2023/05/10 07:17:13;;;;;;;70.65;46.25;;;;;;;;;;5046981;28;20033;-70
2023/05/10 07:19:39;;;;;;;62.28;41.70;;;;;;;;;;5045543;28;20079;-72
2023/05/10 07:22:06;;;;;;;46.13;31.67;;;;;;;;;;5046299;28;20100;-72
2023/05/10 07:24:33;;;;;;;29.23;22.08;;;;;;;;;;5048843;28;20036;-71
2023/05/10 07:27:00;;;;;;;40.47;33.90;;;;;;;;;;5049444;28;20051;-71
2023/05/10 07:29:27;;;;;;;46.17;37.00;;;;;;;;;;5046671;28;20492;-71
2023/05/10 07:31:53;;;;;;;33.58;27.08;;;;;;;;;;5044460;28;20029;-71
2023/05/10 07:34:20;;;;;;;51.42;45.10;;;;;;;;;;5045768;28;20037;-70
2023/05/10 07:36:46;;;;;;;36.72;30.95;;;;;;;;;;5044405;28;20432;-69
2023/05/10 07:39:13;;;;;;;48.60;34.38;;;;;;;;;;5033041;28;20029;-71
2023/05/10 07:41:40;;;;;;;41.05;30.27;;;;;;;;;;5035000;28;20536;-70
2023/05/10 07:44:07;;;;;;;24.75;19.15;;;;;;;;;;5031423;28;20620;-73
2023/05/10 07:46:33;;;;;;;47.80;27.10;;;;;;;;;;5030786;28;20192;-74
2023/05/10 07:49:00;;;;;;;68.82;39.90;;;;;;;;;;5032080;28;20026;-74
2023/05/10 07:51:27;;;;;;;25.23;19.33;;;;;;;;;;5017036;28;20018;-70
2023/05/10 07:53:54;;;;;;;68.03;44.38;;;;;;;;;;5024138;28;20028;-74
2023/05/10 07:56:21;;;;;;;56.75;40.45;;;;;;;;;;5034430;28;20052;-74
2023/05/10 07:58:47;;;;;;;110.63;79.05;;;;;;;;;;5035773;28;20025;-71
2023/05/10 08:01:14;;;;;;;67.05;50.80;;;;;;;;;;5036331;28;20029;-73
2023/05/10 08:03:41;;;;;;;58.83;42.83;;;;;;;;;;5041066;28;20432;-74
2023/05/10 08:06:07;;;;;;;72.40;52.88;;;;;;;;;;5042607;28;20032;-71
2023/05/10 08:08:34;;;;;;;29.55;23.40;;;;;;;;;;5028531;28;20026;-71
2023/05/10 08:11:01;;;;;;;22.92;18.27;;;;;;;;;;5028610;28;20100;-71
2023/05/10 08:13:27;;;;;;;22.40;17.05;;;;;;;;;;5023990;28;20113;-71
2023/05/10 08:15:54;;;;;;;49.05;40.00;;;;;;;;;;5036927;28;20051;-71
2023/05/10 08:18:20;;;;;;;34.83;29.73;;;;;;;;;;5020897;28;20100;-71
2023/05/10 08:20:47;;;;;;;52.95;47.28;;;;;;;;;;5031470;28;20033;-71
2023/05/10 08:23:14;;;;;;;33.95;25.92;;;;;;;;;;5046135;28;20026;-72
2023/05/10 08:25:40;;;;;;;22.85;16.73;;;;;;;;;;5048408;22;20068;-71
2023/05/10 08:28:07;;;;;;;43.15;32.08;;;;;;;;;;5032518;28;20065;-75
2023/05/10 08:30:33;;;;;;;44.65;34.55;;;;;;;;;;5038503;28;20076;-72
2023/05/10 08:33:00;;;;;;;23.42;20.92;;;;;;;;;;5032359;28;20059;-71
2023/05/10 08:35:27;;;;;;;52.53;45.75;;;;;;;;;;5030275;28;20030;-72
2023/05/10 08:37:53;;;;;;;44.03;33.80;;;;;;;;;;5028994;28;20021;-74
2023/05/10 08:40:20;;;;;;;66.60;54.70;;;;;;;;;;5026658;28;20117;-71
2023/05/10 08:42:55;;;;;;;37.65;24.98;;;;;;;;;;5031995;28;20042;-72
2023/05/10 08:45:23;;;;;;;56.63;40.10;;;;;;;;;;5027257;28;20116;-74
2023/05/10 08:47:50;;;;;;;64.93;52.85;;;;;;;;;;5029212;28;20547;-71
2023/05/10 08:50:18;;;;;;;28.45;23.60;;;;;;;;;;5028530;28;20021;-72
2023/05/10 08:52:47;;;;;;;33.55;26.27;;;;;;;;;;5031467;28;20026;-71
2023/05/10 08:55:14;;;;;;;23.98;19.65;;;;;;;;;;5029237;28;20014;-72
2023/05/10 08:57:40;;;;;;;35.20;25.63;;;;;;;;;;5026708;28;20022;-73
2023/05/10 09:00:08;;;;;;;30.00;23.33;;;;;;;;;;5027923;28;20095;-70
2023/05/10 09:02:36;;;;;;;24.70;16.02;;;;;;;;;;5031208;28;20088;-71
2023/05/10 09:05:04;;;;;;;27.17;18.45;;;;;;;;;;5033714;28;20542;-69
2023/05/10 09:07:31;;;;;;;39.67;29.30;;;;;;;;;;5029859;28;20075;-70
2023/05/10 09:09:58;;;;;;;35.67;25.52;;;;;;;;;;5028738;28;20032;-70
2023/05/10 09:12:25;;;;;;;38.25;26.92;;;;;;;;;;5022314;28;20021;-71
2023/05/10 09:14:53;;;;;;;39.30;27.52;;;;;;;;;;5028443;28;20016;-72
2023/05/10 09:17:19;;;;;;;36.17;27.65;;;;;;;;;;5024123;28;20025;-71
2023/05/10 09:19:46;;;;;;;45.15;31.20;;;;;;;;;;5024369;28;20044;-72
2023/05/10 09:22:13;;;;;;;54.35;28.40;;;;;;;;;;5029317;28;20025;-70
2023/05/10 09:24:44;;;;;;;31.80;22.75;;;;;;;;;;5033919;28;20113;-70
2023/05/10 09:27:11;;;;;;;37.67;22.55;;;;;;;;;;5030448;28;20136;-71
2023/05/10 09:29:47;;;;;;;31.05;21.08;;;;;;;;;;5028188;28;20052;-69
2023/05/10 09:32:15;;;;;;;27.05;19.88;;;;;;;;;;5027410;28;20017;-71
2023/05/10 09:34:42;;;;;;;29.95;21.13;;;;;;;;;;5028238;28;20707;-69
2023/05/10 09:37:08;;;;;;;28.27;21.17;;;;;;;;;;5028464;28;20393;-69
2023/05/10 09:39:36;;;;;;;30.17;20.90;;;;;;;;;;5026727;28;20030;-67
2023/05/10 09:42:04;;;;;;;56.20;38.15;;;;;;;;;;5031659;28;20032;-69
2023/05/10 09:44:31;;;;;;;48.20;37.25;;;;;;;;;;5032507;28;20477;-69
2023/05/10 09:46:58;;;;;;;42.50;26.77;;;;;;;;;;5049035;22;20057;-69
2023/05/10 09:49:24;;;;;;;57.17;35.88;;;;;;;;;;5028317;28;20060;-68
2023/05/10 09:52:11;;;;;;;63.03;43.03;;;;;;;;;;5018014;28;20030;-69
2023/05/10 09:54:38;;;;;;;37.35;24.05;;;;;;;;;;5028082;28;20032;-68
2023/05/10 09:57:04;;;;;;;88.47;63.70;;;;;;;;;;5022903;28;20176;-67
2023/05/10 09:59:35;;;;;;;46.88;30.13;;;;;;;;;;5021753;28;20045;-68
2023/05/10 10:02:01;;;;;;;57.35;33.38;;;;;;;;;;5023775;28;20025;-69
2023/05/10 10:04:28;;;;;;;45.80;30.08;;;;;;;;;;5015833;28;20029;-69
2023/05/10 10:07:00;;;;;;;38.85;25.20;;;;;;;;;;5009438;28;20382;-69
2023/05/10 10:09:27;;;;;;;33.92;25.17;;;;;;;;;;5008676;28;20087;-71
2023/05/10 10:11:55;;;;;;;54.63;26.30;;;;;;;;;;5007039;28;20030;-70
2023/05/10 10:14:23;;;;;;;60.42;48.20;;;;;;;;;;5009165;28;20025;-69
2023/05/10 10:16:50;;;;;;;57.00;38.63;;;;;;;;;;5008767;28;20036;-71
2023/05/10 10:19:18;;;;;;;52.35;35.70;;;;;;;;;;5006113;28;20377;-72
2023/05/10 10:21:44;;;;;;;77.18;48.17;;;;;;;;;;5004530;28;20112;-71
2023/05/10 10:24:11;;;;;;;76.63;46.85;;;;;;;;;;5012912;28;20450;-71
2023/05/10 10:26:38;;;;;;;74.30;40.38;;;;;;;;;;5011611;28;20347;-70
2023/05/10 10:29:05;;;;;;;49.28;30.35;;;;;;;;;;5017037;28;20034;-72
2023/05/10 10:31:53;;;;;;;59.10;30.55;;;;;;;;;;5015210;28;20505;-71
2023/05/10 10:34:19;;;;;;;57.05;29.42;;;;;;;;;;5024010;28;20068;-72
2023/05/10 10:36:47;;;;;;;50.80;36.08;;;;;;;;;;5025422;28;20113;-70
2023/05/10 10:39:14;;;;;;;74.53;56.17;;;;;;;;;;5022901;28;20030;-74
2023/05/10 10:41:51;;;;;;;52.38;38.22;;;;;;;;;;4990745;28;20069;-72
2023/05/10 10:44:34;;;;;;;107.50;70.75;;;;;;;;;;5007132;28;20029;-71
2023/05/10 10:47:02;;;;;;;109.38;78.18;;;;;;;;;;5006097;28;20050;-70
2023/05/10 10:49:33;;;;;;;88.10;61.47;;;;;;;;;;5005209;28;20046;-74
2023/05/10 10:52:19;;;;;;;50.87;38.63;;;;;;;;;;5003315;28;20017;-74
2023/05/10 10:55:06;;;;;;;54.45;42.35;;;;;;;;;;5000877;28;20098;-71
2023/05/10 10:57:34;;;;;;;55.53;38.95;;;;;;;;;;4991512;28;20034;-70
2023/05/10 11:00:20;;;;;;;49.08;34.92;;;;;;;;;;5005041;28;20030;-70
2023/05/10 11:02:51;;;;;;;51.78;32.38;;;;;;;;;;4997695;28;20113;-70
2023/05/10 11:05:36;;;;;;;48.30;33.92;;;;;;;;;;5005623;28;20022;-72
2023/05/10 11:08:22;;;;;;;40.72;29.65;;;;;;;;;;5002296;28;20048;-73
2023/05/10 11:10:51;;;;;;;37.83;29.65;;;;;;;;;;4992947;28;20034;-74
2023/05/10 11:13:27;;;;;;;42.55;30.05;;;;;;;;;;5002311;28;20136;-71
2023/05/10 11:15:54;;;;;;;78.25;59.78;;;;;;;;;;5011907;28;20026;-75
2023/05/10 11:18:22;;;;;;;75.65;59.78;;;;;;;;;;4993348;28;20178;-73
2023/05/10 11:20:53;;;;;;;62.85;43.53;;;;;;;;;;5002190;28;20022;-72
2023/05/10 11:23:21;;;;;;;73.07;53.53;;;;;;;;;;4999865;28;20106;-75
2023/05/10 11:25:48;;;;;;;45.60;32.22;;;;;;;;;;5002719;28;20061;-74
2023/05/10 11:28:15;;;;;;;44.42;31.83;;;;;;;;;;5000336;28;20521;-73
2023/05/10 11:30:42;;;;;;;44.95;32.25;;;;;;;;;;4996232;28;20550;-73
2023/05/10 11:33:10;;;;;;;40.13;29.63;;;;;;;;;;4995991;28;20109;-74
2023/05/10 11:35:38;;;;;;;44.63;33.33;;;;;;;;;;5000388;28;20029;-74
2023/05/10 11:38:08;;;;;;;52.30;38.38;;;;;;;;;;5000716;28;20026;-74
2023/05/10 11:40:35;;;;;;;92.32;65.88;;;;;;;;;;5019972;28;20502;-73
2023/05/10 11:43:02;;;;;;;132.45;105.18;;;;;;;;;;5004020;28;20038;-75
2023/05/10 11:45:31;;;;;;;60.38;47.17;;;;;;;;;;5001777;28;20073;-75
2023/05/10 11:47:58;;;;;;;124.90;104.00;;;;;;;;;;5002881;28;20034;-78
2023/05/10 11:50:25;;;;;;;90.78;75.32;;;;;;;;;;4998631;28;20031;-75
2023/05/10 11:52:55;;;;;;;47.20;36.58;;;;;;;;;;5003814;28;20049;-72
2023/05/10 11:55:21;;;;;;;51.40;36.78;;;;;;;;;;5005951;28;20097;-75
2023/05/10 11:57:52;;;;;;;42.75;27.55;;;;;;;;;;4998782;28;20173;-74
2023/05/10 12:00:18;;;;;;;53.83;42.00;;;;;;;;;;5001348;28;20029;-74
2023/05/10 12:02:45;;;;;;;74.93;56.25;;;;;;;;;;4993392;28;20438;-73
2023/05/10 12:05:12;;;;;;;113.90;91.30;;;;;;;;;;4990914;28;20105;-73
2023/05/10 12:07:38;;;;;;;72.38;59.58;;;;;;;;;;4994863;28;20027;-74
2023/05/10 12:10:17;;;;;;;69.10;56.53;;;;;;;;;;5001820;28;20057;-77
2023/05/10 12:12:45;;;;;;;42.15;28.90;;;;;;;;;;5005296;28;20109;-76
2023/05/10 12:15:13;;;;;;;38.85;25.67;;;;;;;;;;5003021;28;20053;-75
2023/05/10 12:17:40;;;;;;;33.05;20.98;;;;;;;;;;5001909;28;20030;-75
2023/05/10 12:20:17;;;;;;;35.10;27.67;;;;;;;;;;5004763;28;20034;-74
2023/05/10 12:22:45;;;;;;;34.38;21.65;;;;;;;;;;4995375;28;20101;-75
2023/05/10 12:25:12;;;;;;;32.95;23.05;;;;;;;;;;5000004;28;20049;-77
2023/05/10 12:27:39;;;;;;;33.05;22.23;;;;;;;;;;5004946;28;20026;-77
2023/05/10 12:30:06;;;;;;;46.63;31.83;;;;;;;;;;5005457;28;20482;-75
2023/05/10 12:32:42;;;;;;;110.60;87.60;;;;;;;;;;5003465;28;20458;-74
2023/05/10 12:35:09;;;;;;;94.13;72.93;;;;;;;;;;5005247;28;20072;-75
2023/05/10 12:37:38;;;;;;;82.75;73.25;;;;;;;;;;5005459;28;20026;-75
2023/05/10 12:40:08;;;;;;;61.15;51.38;;;;;;;;;;5002625;28;20044;-75
2023/05/10 12:42:35;;;;;;;51.22;27.15;;;;;;;;;;5003940;28;20462;-73
2023/05/10 12:45:02;;;;;;;30.65;18.55;;;;;;;;;;5014795;28;20538;-75
2023/05/10 12:47:29;;;;;;;52.20;41.63;;;;;;;;;;5000944;28;20096;-74
2023/05/10 12:49:56;;;;;;;77.43;57.92;;;;;;;;;;5004320;28;20108;-75
2023/05/10 12:52:22;;;;;;;38.72;27.88;;;;;;;;;;5004336;28;20026;-74
2023/05/10 12:54:49;;;;;;;53.53;47.95;;;;;;;;;;5006842;28;20085;-75
2023/05/10 12:57:16;;;;;;;79.30;70.53;;;;;;;;;;5007817;28;20053;-76
2023/05/10 12:59:43;;;;;;;80.32;69.47;;;;;;;;;;5005664;28;20027;-76
2023/05/10 13:02:09;;;;;;;79.93;68.47;;;;;;;;;;5004926;28;20029;-75
2023/05/10 13:04:39;;;;;;;139.38;122.78;;;;;;;;;;5005262;28;20109;-75
2023/05/10 13:07:06;;;;;;;51.50;35.53;;;;;;;;;;5000670;28;20386;-78
2023/05/10 13:09:33;;;;;;;21.98;15.65;;;;;;;;;;4996309;28;20037;-76
2023/05/10 13:12:00;;;;;;;21.40;14.43;;;;;;;;;;5000907;28;20498;-74
2023/05/10 13:14:27;;;;;;;233.75;185.85;;;;;;;;;;5006388;28;20025;-76
2023/05/10 13:16:54;;;;;;;91.78;70.53;;;;;;;;;;5000929;28;20030;-73
2023/05/10 13:19:20;;;;;;;73.90;59.05;;;;;;;;;;5003212;28;20133;-73
2023/05/10 13:21:47;;;;;;;87.25;64.15;;;;;;;;;;5001862;28;20084;-73
2023/05/10 13:24:13;;;;;;;70.10;50.17;;;;;;;;;;4992438;28;20022;-73
2023/05/10 13:26:41;;;;;;;85.97;43.90;;;;;;;;;;4995587;28;20018;-71
2023/05/10 13:29:08;;;;;;;20.30;12.43;;;;;;;;;;5002937;28;20101;-73
2023/05/10 13:31:35;;;;;;;23.27;11.90;;;;;;;;;;5002795;28;20030;-72
2023/05/10 13:34:02;;;;;;;67.22;58.95;;;;;;;;;;5002311;28;20040;-73
2023/05/10 13:36:29;;;;;;;36.17;28.40;;;;;;;;;;5001713;28;20057;-74
2023/05/10 13:38:56;;;;;;;49.70;44.30;;;;;;;;;;5002530;28;20035;-71
2023/05/10 13:41:22;;;;;;;38.00;30.45;;;;;;;;;;5001036;28;20026;-74
2023/05/10 13:43:49;;;;;;;20.60;11.55;;;;;;;;;;4996580;28;20061;-71
2023/05/10 13:46:15;;;;;;;17.70;9.85;;;;;;;;;;5000242;28;20045;-70
2023/05/10 13:48:42;;;;;;;15.63;9.63;;;;;;;;;;4997882;28;20030;-72
2023/05/10 13:51:09;;;;;;;29.67;14.10;;;;;;;;;;4976124;28;20150;-69
2023/05/10 13:53:36;;;;;;;19.33;12.65;;;;;;;;;;4976915;28;20086;-70
2023/05/10 13:56:02;;;;;;;12.95;8.90;;;;;;;;;;5013826;28;20030;-70
2023/05/10 13:58:29;;;;;;;19.85;9.50;;;;;;;;;;5010714;28;20075;-70
2023/05/10 14:00:56;;;;;;;12.80;10.00;;;;;;;;;;5007502;28;20388;-70
2023/05/10 14:03:23;;;;;;;17.23;9.98;;;;;;;;;;4993075;28;20158;-71
2023/05/10 14:05:50;;;;;;;15.95;8.18;;;;;;;;;;5012333;28;20036;-69
2023/05/10 14:08:17;;;;;;;17.15;8.65;;;;;;;;;;4996626;28;20034;-69
2023/05/10 14:10:44;;;;;;;16.58;8.32;;;;;;;;;;5003588;28;20114;-69
2023/05/10 14:13:10;;;;;;;17.20;8.48;;;;;;;;;;4999727;28;20015;-69
2023/05/10 14:15:37;;;;;;;14.20;8.05;;;;;;;;;;5010979;28;20033;-69
2023/05/10 14:18:04;;;;;;;11.30;7.07;;;;;;;;;;4999804;28;20038;-69
2023/05/10 14:20:31;;;;;;;14.02;7.88;;;;;;;;;;5014436;28;20104;-69
2023/05/10 14:22:58;;;;;;;11.30;7.70;;;;;;;;;;5001880;28;20398;-69
2023/05/10 14:25:25;;;;;;;12.38;8.10;;;;;;;;;;4994871;28;20042;-68
2023/05/10 14:27:54;;;;;;;14.07;6.97;;;;;;;;;;4994983;28;20022;-69
2023/05/10 14:30:21;;;;;;;15.65;8.00;;;;;;;;;;4994727;28;20027;-69
2023/05/10 14:32:47;;;;;;;11.10;7.40;;;;;;;;;;4995050;28;20026;-69
2023/05/10 14:35:14;;;;;;;14.73;8.23;;;;;;;;;;4994791;28;20554;-69
2023/05/10 14:37:41;;;;;;;14.00;7.65;;;;;;;;;;4994700;28;20022;-69
2023/05/10 14:40:09;;;;;;;15.88;8.15;;;;;;;;;;4994427;28;20438;-69